Fairborn, Ohio
Current Conditions -  °F | °C
As of 4:58 PM on Sunday 23 Nov 2014 (Local Time) from KFFO Reporting Station
Light Rain Light Rain  
Wind Chill: 58°   Ceiling: 8500
Heat Index: 58°   Visibility: 10mi
Dew Point: 46°   Wind: 12mph
Humidity: 65%   Direction: 120°ESE
Pressure: 29.59"   Gusts: NA
Location:  39.83°N, 84.02°W
Report Text: KFFO 232158Z 12010KT 10SM -RA SCT050 OVC085 14/08 A2959 RMK AO2A PRESFR SLP023 P0000 T01440079
Loading
Personal Weather Stations






























Interactive Weather Map New forecast layout! Learn more

10-Day Weather Forecast

Advertisements
Track Severe Weather on mobile